Time;durP1;ratioP1;P1;durP2;ratioP2;P2;SDS_P1;SDS_P2;PMS_P1;PMS_P2;Temp;Humidity;BMP_temperature;BMP_pressure;BME280_temperature;BME280_humidity;BME280_pressure;Samples;Min_cycle;Max_cycle;Signal;HPM_P1;HPM_P2
2023/06/23 00:01:53;;;;;;;7.97;7.10;;;;;;;15.77;100.00;101754.53;5047067;28;20040;-62
2023/06/23 00:04:19;;;;;;;8.38;6.78;;;;;;;15.76;100.00;101758.34;5046682;28;20124;-62
2023/06/23 00:06:44;;;;;;;7.35;6.53;;;;;;;15.72;100.00;101758.03;5046395;28;20124;-62
2023/06/23 00:09:13;;;;;;;8.85;6.70;;;;;;;15.71;100.00;101761.00;5045884;28;20116;-62
2023/06/23 00:11:42;;;;;;;9.10;7.05;;;;;;;15.71;100.00;101761.00;5046618;28;20033;-62
2023/06/23 00:14:08;;;;;;;8.10;7.30;;;;;;;15.69;100.00;101768.72;5046516;28;20025;-61
2023/06/23 00:16:33;;;;;;;8.20;6.95;;;;;;;15.66;100.00;101764.53;5047402;28;20479;-62
2023/06/23 00:18:59;;;;;;;9.48;7.82;;;;;;;15.66;100.00;101780.28;5045282;28;20746;-62
2023/06/23 00:21:25;;;;;;;8.55;7.75;;;;;;;15.64;100.00;101776.91;5035509;28;20117;-62
2023/06/23 00:23:50;;;;;;;9.20;7.68;;;;;;;15.58;100.00;101774.00;5043302;28;20456;-62
2023/06/23 00:26:16;;;;;;;9.77;8.15;;;;;;;15.57;100.00;101783.41;5045403;28;20036;-62
2023/06/23 00:28:41;;;;;;;8.77;7.85;;;;;;;15.54;100.00;101783.88;5046938;28;20017;-62
2023/06/23 00:31:06;;;;;;;9.60;8.25;;;;;;;15.50;100.00;101790.97;5046824;28;20029;-62
2023/06/23 00:33:32;;;;;;;10.65;9.35;;;;;;;15.49;100.00;101789.28;5036200;28;20074;-62
2023/06/23 00:35:58;;;;;;;10.70;9.60;;;;;;;15.47;100.00;101788.69;5035320;28;20372;-62
2023/06/23 00:38:25;;;;;;;10.35;9.25;;;;;;;15.45;100.00;101796.38;5046261;28;20033;-62
2023/06/23 00:40:50;;;;;;;10.25;9.15;;;;;;;15.46;100.00;101800.00;5046822;28;20025;-62
2023/06/23 00:43:16;;;;;;;10.20;9.20;;;;;;;15.44;100.00;101794.69;5046747;28;20043;-62
2023/06/23 00:45:43;;;;;;;10.75;9.68;;;;;;;15.43;100.00;101801.31;5045752;28;20060;-62
2023/06/23 00:48:13;;;;;;;11.50;10.23;;;;;;;15.41;100.00;101802.63;5047227;28;20371;-62
2023/06/23 00:50:38;;;;;;;12.50;11.25;;;;;;;15.40;100.00;101810.09;5044545;28;20033;-62
2023/06/23 00:53:04;;;;;;;11.88;10.70;;;;;;;15.36;100.00;101800.63;5045484;28;20104;-62
2023/06/23 00:55:30;;;;;;;12.85;11.55;;;;;;;15.38;100.00;101819.75;5045241;28;20091;-62
2023/06/23 00:57:57;;;;;;;12.73;11.32;;;;;;;15.38;100.00;101825.28;5046108;28;20044;-62
2023/06/23 01:00:25;;;;;;;13.63;12.23;;;;;;;15.37;100.00;101831.91;5046518;28;20021;-62
2023/06/23 01:02:54;;;;;;;;;;;;;;;15.43;100.00;101837.31;5047212;28;20044;-62
2023/06/23 01:05:23;;;;;;;14.00;12.60;;;;;;;15.39;100.00;101847.19;5046092;28;20298;-62
2023/06/23 01:08:03;;;;;;;13.95;12.65;;;;;;;15.36;100.00;101847.66;5046064;28;20035;-62
2023/06/23 01:10:37;;;;;;;14.05;12.75;;;;;;;15.34;100.00;101847.03;5044995;28;20079;-62
2023/06/23 01:13:15;;;;;;;14.65;13.23;;;;;;;15.32;100.00;101850.06;5045877;28;20728;-62
2023/06/23 01:15:51;;;;;;;15.85;13.27;;;;;;;15.30;100.00;101849.44;5044018;28;20029;-62
2023/06/23 01:18:40;;;;;;;15.73;13.55;;;;;;;15.31;100.00;101850.31;5046021;28;20021;-62
2023/06/23 01:21:09;;;;;;;15.65;14.05;;;;;;;15.30;100.00;101843.91;5032417;28;20032;-62
2023/06/23 01:24:18;;;;;;;14.35;12.93;;;;;;;15.32;100.00;101843.69;5045104;28;20017;-62
2023/06/23 01:27:34;;;;;;;14.65;13.35;;;;;;;15.30;100.00;101849.44;4997005;28;20045;-62
2023/06/23 01:30:02;;;;;;;15.80;14.20;;;;;;;15.29;100.00;101860.75;4926525;29;20118;-61
2023/06/23 01:32:31;;;;;;;;;;;;;;;15.35;100.00;101864.50;5024721;28;20037;-62
2023/06/23 01:35:06;;;;;;;16.52;14.70;;;;;;;15.30;100.00;101862.44;5045446;28;19969;-62
2023/06/23 01:37:34;;;;;;;17.23;15.50;;;;;;;15.27;100.00;101866.53;5044407;28;20044;-62
2023/06/23 01:40:09;;;;;;;17.65;16.05;;;;;;;15.28;100.00;101856.31;5041761;28;20033;-62
2023/06/23 01:42:40;;;;;;;17.38;15.68;;;;;;;15.24;100.00;101858.69;5043534;28;20020;-62
2023/06/23 01:45:07;;;;;;;17.90;16.20;;;;;;;15.23;100.00;101859.78;5044948;28;20059;-62
2023/06/23 01:47:37;;;;;;;18.05;16.48;;;;;;;15.21;100.00;101861.97;5044719;28;20099;-62
2023/06/23 01:50:05;;;;;;;17.52;15.95;;;;;;;15.21;100.00;101866.66;5046215;28;20031;-62
2023/06/23 01:52:35;;;;;;;16.63;15.00;;;;;;;15.20;100.00;101874.09;5045733;28;20025;-62
2023/06/23 01:55:04;;;;;;;17.20;15.60;;;;;;;15.19;100.00;101883.47;5044508;28;20563;-62
2023/06/23 01:57:31;;;;;;;17.42;15.77;;;;;;;15.18;100.00;101884.56;5045876;28;20029;-62
2023/06/23 01:59:58;;;;;;;16.80;15.30;;;;;;;15.18;100.00;101889.25;5045255;28;20579;-62
2023/06/23 02:02:26;;;;;;;16.70;15.10;;;;;;;15.17;100.00;101877.34;5061537;28;20039;-62
2023/06/23 02:04:54;;;;;;;17.30;15.60;;;;;;;15.15;100.00;101881.41;5049426;28;20028;-62
2023/06/23 02:07:21;;;;;;;16.45;15.05;;;;;;;15.13;100.00;101872.50;5048438;28;20479;-62
2023/06/23 02:09:47;;;;;;;17.17;15.57;;;;;;;15.13;100.00;101889.13;5048829;28;20087;-62
2023/06/23 02:12:15;;;;;;;16.52;15.02;;;;;;;15.11;100.00;101891.28;5049146;28;20154;-61
2023/06/23 02:14:43;;;;;;;17.45;15.75;;;;;;;15.11;100.00;101896.81;5049270;28;20501;-62
2023/06/23 02:17:10;;;;;;;16.33;14.93;;;;;;;15.09;100.00;101901.72;5049201;28;20447;-62
2023/06/23 02:19:39;;;;;;;16.85;15.35;;;;;;;15.09;100.00;101898.97;5049006;28;20123;-62
2023/06/23 02:22:09;;;;;;;16.77;15.23;;;;;;;15.07;100.00;101898.38;5049333;28;20051;-62
2023/06/23 02:24:35;;;;;;;16.33;14.80;;;;;;;15.04;100.00;101906.03;5047955;28;20036;-62
2023/06/23 02:27:02;;;;;;;16.58;15.02;;;;;;;15.03;100.00;101909.88;5049339;28;20029;-62
2023/06/23 02:29:28;;;;;;;16.65;15.15;;;;;;;15.02;100.00;101919.28;5049535;28;20040;-62
2023/06/23 02:31:53;;;;;;;16.98;15.48;;;;;;;15.00;100.00;101921.44;5049413;28;20032;-62
2023/06/23 02:34:19;;;;;;;18.10;16.42;;;;;;;15.01;100.00;101931.44;5048052;28;20040;-62
2023/06/23 02:36:47;;;;;;;18.30;16.70;;;;;;;15.02;100.00;101940.56;5048724;28;20503;-62
2023/06/23 02:39:17;;;;;;;17.77;16.17;;;;;;;15.00;100.00;101940.81;5047929;28;20027;-62
2023/06/23 02:41:45;;;;;;;17.52;15.95;;;;;;;14.97;100.00;101938.50;5065362;28;20025;-62
2023/06/23 02:44:14;;;;;;;18.73;17.00;;;;;;;14.95;100.00;101946.19;5047091;28;20027;-62
2023/06/23 02:46:43;;;;;;;18.92;17.23;;;;;;;14.95;100.00;101943.44;5049366;28;20380;-62
2023/06/23 02:49:16;;;;;;;19.48;17.88;;;;;;;14.93;100.00;101941.97;5057450;28;20378;-62
2023/06/23 02:51:44;;;;;;;19.52;17.92;;;;;;;14.94;100.00;101954.72;5046444;28;20029;-62
2023/06/23 02:54:12;;;;;;;19.80;18.10;;;;;;;14.89;100.00;101957.31;5048065;28;20115;-62
2023/06/23 02:56:43;;;;;;;20.95;19.02;;;;;;;14.89;100.00;101951.78;5048490;28;20392;-62
2023/06/23 02:59:13;;;;;;;21.13;19.30;;;;;;;14.88;100.00;101961.19;5048863;28;20039;-62
2023/06/23 03:01:41;;;;;;;21.95;20.05;;;;;;;14.85;100.00;101956.97;5048775;28;20025;-62
2023/06/23 03:04:07;;;;;;;21.75;19.70;;;;;;;14.84;100.00;101955.25;5047777;28;20025;-62
2023/06/23 03:06:36;;;;;;;21.98;20.05;;;;;;;14.81;100.00;101961.28;5049077;28;20029;-61
2023/06/23 03:09:03;;;;;;;22.58;20.58;;;;;;;14.79;100.00;101964.25;5048214;28;20389;-62
2023/06/23 03:11:30;;;;;;;23.98;21.83;;;;;;;14.78;100.00;101967.25;5048629;28;20059;-61
2023/06/23 03:13:56;;;;;;;22.67;20.63;;;;;;;14.76;100.00;101970.25;5047346;28;20683;-62
2023/06/23 03:16:55;;;;;;;24.67;22.40;;;;;;;14.76;100.00;101969.41;5048262;28;20630;-61
2023/06/23 03:19:39;;;;;;;25.15;22.90;;;;;;;14.76;100.00;101966.66;5033121;28;20039;-62
2023/06/23 03:22:17;;;;;;;25.95;23.65;;;;;;;14.73;100.00;101970.72;5048292;28;20029;-62
2023/06/23 03:24:47;;;;;;;25.95;23.75;;;;;;;14.73;100.00;101972.63;5046771;28;20070;-62
2023/06/23 03:27:13;;;;;;;24.58;22.48;;;;;;;14.69;100.00;101969.47;5057959;28;20032;-62
2023/06/23 03:29:43;;;;;;;25.77;23.48;;;;;;;14.67;100.00;101971.63;5046941;28;20028;-62
2023/06/23 03:32:12;;;;;;;26.67;24.33;;;;;;;14.68;100.00;101978.84;5048217;28;20068;-62
2023/06/23 03:34:43;;;;;;;27.25;24.85;;;;;;;14.66;100.00;101981.00;5047513;28;20098;-62
2023/06/23 03:37:11;;;;;;;27.98;25.58;;;;;;;14.66;100.00;101980.16;5048056;28;20029;-62
2023/06/23 03:39:40;;;;;;;29.02;26.42;;;;;;;14.66;100.00;101971.88;5046732;28;20024;-62
2023/06/23 03:42:06;;;;;;;29.75;27.23;;;;;;;14.66;100.00;101981.00;5048013;28;20380;-62
2023/06/23 03:44:45;;;;;;;30.92;28.17;;;;;;;14.69;100.00;101985.22;5048140;28;20029;-61
2023/06/23 03:47:16;;;;;;;30.33;27.73;;;;;;;14.69;100.00;101986.06;5048325;28;20035;-62
2023/06/23 03:49:49;;;;;;;30.40;27.80;;;;;;;14.69;100.00;101980.53;5047874;28;20371;-62
2023/06/23 03:52:17;;;;;;;31.55;28.80;;;;;;;14.70;100.00;101979.47;5044189;28;20111;-62
2023/06/23 03:54:44;;;;;;;31.23;28.25;;;;;;;14.70;100.00;101975.84;5047741;28;20023;-62
2023/06/23 03:57:15;;;;;;;29.73;27.10;;;;;;;14.69;100.00;101968.63;5048277;28;20102;-62
2023/06/23 03:59:41;;;;;;;32.30;29.27;;;;;;;14.69;100.00;101982.47;5032284;28;20021;-61
2023/06/23 04:02:09;;;;;;;31.38;28.55;;;;;;;14.69;100.00;101993.53;5048211;28;20049;-62
2023/06/23 04:04:37;;;;;;;31.00;28.17;;;;;;;14.70;100.00;102003.50;5048333;28;20423;-61
2023/06/23 04:07:03;;;;;;;;;;;;;;;14.78;100.00;102017.03;5048636;28;20104;-62
2023/06/23 04:09:31;;;;;;;30.10;27.42;;;;;;;14.72;100.00;102020.72;5046950;28;20004;-62
2023/06/23 04:11:58;;;;;;;32.13;29.17;;;;;;;14.73;100.00;102019.63;5046598;28;20108;-62
2023/06/23 04:14:26;;;;;;;31.60;28.75;;;;;;;14.75;100.00;102021.13;5040775;28;20550;-62
2023/06/23 04:16:54;;;;;;;31.10;28.23;;;;;;;14.79;100.00;102010.41;5032443;28;20533;-62
2023/06/23 04:19:25;;;;;;;32.15;29.17;;;;;;;14.80;100.00;102014.91;5030011;28;20029;-62
2023/06/23 04:21:51;;;;;;;32.30;29.30;;;;;;;14.84;100.00;102015.25;5046569;28;20166;-61
2023/06/23 04:24:19;;;;;;;30.80;28.13;;;;;;;14.86;100.00;102013.97;5046739;28;20039;-61
2023/06/23 04:26:47;;;;;;;32.00;29.13;;;;;;;14.89;100.00;102019.03;5047384;28;20020;-61
2023/06/23 04:29:14;;;;;;;31.33;28.58;;;;;;;14.92;100.00;102024.09;5046051;28;20426;-62
2023/06/23 04:31:41;;;;;;;31.15;28.42;;;;;;;14.93;100.00;102025.78;5046894;28;20029;-62
2023/06/23 04:34:06;;;;;;;29.85;27.25;;;;;;;14.97;100.00;102029.78;5046782;28;20052;-62
2023/06/23 04:36:40;;;;;;;30.95;28.15;;;;;;;15.00;100.00;102037.66;5046985;28;20032;-61
2023/06/23 04:39:17;;;;;;;30.58;27.77;;;;;;;15.00;100.00;102034.88;5046274;28;20625;-61
2023/06/23 04:41:47;;;;;;;31.02;28.20;;;;;;;15.03;100.00;102034.41;5046985;28;20025;-61
2023/06/23 04:44:18;;;;;;;31.75;28.67;;;;;;;15.07;100.00;102036.72;5046416;28;20048;-61
2023/06/23 04:46:45;;;;;;;32.05;28.85;;;;;;;15.08;100.00;102039.22;5046959;28;20025;-61
2023/06/23 04:49:15;;;;;;;31.47;28.67;;;;;;;15.10;100.00;102042.59;5046015;28;20032;-61
2023/06/23 04:51:46;;;;;;;32.13;29.15;;;;;;;15.15;100.00;102050.22;5043870;28;20056;-62
2023/06/23 04:54:22;;;;;;;31.95;28.98;;;;;;;15.16;100.00;102057.47;5044648;28;20025;-61
2023/06/23 04:56:50;;;;;;;31.90;28.90;;;;;;;15.18;100.00;102044.22;5046450;28;20717;-61
2023/06/23 04:59:19;;;;;;;32.67;29.75;;;;;;;15.24;100.00;102057.13;5046523;28;20598;-61
2023/06/23 05:01:45;;;;;;;32.45;29.33;;;;;;;15.28;100.00;102055.59;5047373;28;20036;-61
2023/06/23 05:04:13;;;;;;;31.60;28.55;;;;;;;15.30;100.00;102058.97;5045909;28;20107;-61
2023/06/23 05:06:39;;;;;;;31.88;28.85;;;;;;;15.33;100.00;102064.03;5045451;28;20032;-61
2023/06/23 05:09:06;;;;;;;31.40;28.33;;;;;;;15.37;100.00;102067.19;5045687;28;20036;-61
2023/06/23 05:11:33;;;;;;;33.38;30.25;;;;;;;15.39;100.00;102074.19;5047066;28;20052;-61
2023/06/23 05:13:59;;;;;;;33.22;30.13;;;;;;;15.44;100.00;102077.09;5045988;28;20033;-61
2023/06/23 05:16:25;;;;;;;33.92;30.83;;;;;;;15.48;100.00;102071.94;5045887;28;20552;-61
2023/06/23 05:18:53;;;;;;;35.42;32.03;;;;;;;15.54;100.00;102069.06;5041818;28;20035;-61
2023/06/23 05:21:21;;;;;;;34.35;31.15;;;;;;;15.60;100.00;102070.06;5046816;28;20028;-61
2023/06/23 05:23:49;;;;;;;34.17;31.08;;;;;;;15.67;100.00;102078.31;5045758;28;20025;-61
2023/06/23 05:26:15;;;;;;;33.80;30.63;;;;;;;15.72;100.00;102075.69;5046490;28;20067;-61
2023/06/23 05:28:43;;;;;;;33.50;30.27;;;;;;;15.76;100.00;102079.66;5045666;28;20021;-61
2023/06/23 05:31:11;;;;;;;34.75;31.38;;;;;;;15.80;100.00;102086.44;5046819;28;20124;-61
2023/06/23 05:33:39;;;;;;;33.65;30.42;;;;;;;15.85;100.00;102086.56;5045358;28;20035;-61
2023/06/23 05:36:09;;;;;;;34.75;31.27;;;;;;;15.92;100.00;102092.03;5045411;28;20476;-62
2023/06/23 05:38:37;;;;;;;33.70;30.40;;;;;;;15.96;100.00;102099.59;5046016;28;20067;-61
2023/06/23 05:41:03;;;;;;;36.03;32.80;;;;;;;16.03;100.00;102094.81;5045647;28;20021;-61
2023/06/23 05:43:28;;;;;;;34.95;31.63;;;;;;;16.09;100.00;102088.34;5046860;28;20032;-61
2023/06/23 05:45:56;;;;;;;35.15;31.73;;;;;;;16.16;100.00;102091.00;5045625;28;20464;-61
2023/06/23 05:48:28;;;;;;;34.47;31.23;;;;;;;16.21;100.00;102099.44;5047066;28;20068;-61
2023/06/23 05:50:56;;;;;;;34.35;31.05;;;;;;;16.29;100.00;102103.81;5046802;28;20033;-61
2023/06/23 05:53:24;;;;;;;33.63;30.35;;;;;;;16.35;100.00;102100.91;5025610;28;20033;-61
2023/06/23 05:56:04;;;;;;;34.90;31.65;;;;;;;16.44;100.00;102106.13;5033860;28;20120;-61
2023/06/23 05:58:33;;;;;;;33.70;30.60;;;;;;;16.50;100.00;102111.53;5046418;28;20021;-61
2023/06/23 06:01:04;;;;;;;32.65;29.55;;;;;;;16.55;100.00;102106.13;5045672;28;20036;-60
2023/06/23 06:03:36;;;;;;;33.45;30.27;;;;;;;16.64;100.00;102108.56;5046537;28;20079;-61
2023/06/23 06:06:04;;;;;;;33.80;30.58;;;;;;;16.68;100.00;102109.75;5046543;28;20086;-62
2023/06/23 06:08:32;;;;;;;33.08;30.15;;;;;;;16.75;100.00;102111.34;5043026;28;20033;-61
2023/06/23 06:10:58;;;;;;;33.22;29.92;;;;;;;16.84;100.00;102117.41;5043084;28;20029;-61
2023/06/23 06:13:25;;;;;;;31.65;28.88;;;;;;;16.99;100.00;102123.31;5046895;28;20037;-61
2023/06/23 06:15:52;;;;;;;32.72;29.70;;;;;;;17.04;100.00;102137.28;5045121;28;20035;-61
2023/06/23 06:18:19;;;;;;;31.95;29.15;;;;;;;17.05;100.00;102138.13;5061933;28;20086;-61
2023/06/23 06:20:46;;;;;;;32.38;29.25;;;;;;;17.06;100.00;102137.03;5066370;28;20074;-61
2023/06/23 06:23:15;;;;;;;32.10;29.23;;;;;;;17.11;100.00;102137.16;5066022;28;20033;-61
2023/06/23 06:25:44;;;;;;;;;;;;;;;17.18;100.00;102142.56;5056651;28;20029;-61
2023/06/23 06:28:12;;;;;;;33.33;30.25;;;;;;;17.19;100.00;102135.97;5045946;28;19913;-61
2023/06/23 06:30:40;;;;;;;33.10;30.10;;;;;;;17.24;100.00;102136.91;5046039;28;20570;-61
2023/06/23 06:33:07;;;;;;;32.90;29.92;;;;;;;17.28;100.00;102135.31;5043514;28;20021;-61
2023/06/23 06:35:34;;;;;;;31.92;29.13;;;;;;;17.36;100.00;102146.06;5046135;28;20045;-61
2023/06/23 06:38:02;;;;;;;32.03;29.15;;;;;;;17.46;100.00;102139.88;5045753;28;20079;-61
2023/06/23 06:40:28;;;;;;;32.03;29.27;;;;;;;17.53;100.00;102150.84;5045573;28;20040;-61
2023/06/23 06:42:53;;;;;;;28.90;26.40;;;;;;;17.58;100.00;102143.44;5042121;28;20024;-61
2023/06/23 06:45:19;;;;;;;31.23;28.45;;;;;;;17.62;100.00;102150.22;5043905;28;20037;-61
2023/06/23 06:47:47;;;;;;;31.23;28.40;;;;;;;17.70;100.00;102162.03;5045999;28;20033;-61
2023/06/23 06:50:14;;;;;;;30.83;28.10;;;;;;;17.71;100.00;102172.06;5046204;28;20086;-61
2023/06/23 06:52:41;;;;;;;29.95;27.40;;;;;;;17.75;100.00;102168.59;5048781;28;20396;-61
2023/06/23 06:55:09;;;;;;;29.92;27.10;;;;;;;17.79;100.00;102177.25;5048476;28;20013;-61
2023/06/23 06:57:35;;;;;;;;;;;;;;;17.91;100.00;102175.28;5050066;28;20416;-61
2023/06/23 07:00:03;;;;;;;27.67;25.27;;;;;;;17.89;100.00;102169.13;5049075;28;20306;-61
2023/06/23 07:02:30;;;;;;;29.92;27.25;;;;;;;17.93;100.00;102175.88;5049388;28;20499;-61
2023/06/23 07:04:56;;;;;;;30.13;27.42;;;;;;;18.06;100.00;102183.94;5033661;28;20037;-61
2023/06/23 07:07:22;;;;;;;29.42;26.83;;;;;;;18.14;100.00;102186.28;5032573;28;20033;-61
2023/06/23 07:09:47;;;;;;;27.38;25.00;;;;;;;18.21;100.00;102191.72;5036281;28;20040;-61
2023/06/23 07:12:12;;;;;;;26.87;24.37;;;;;;;18.26;100.00;102189.03;5048870;28;20032;-61
2023/06/23 07:14:38;;;;;;;25.60;23.30;;;;;;;18.24;100.00;102191.22;5046534;28;20454;-61
2023/06/23 07:17:03;;;;;;;26.77;24.42;;;;;;;18.29;100.00;102188.53;5048520;28;20029;-60
2023/06/23 07:19:29;;;;;;;25.60;23.45;;;;;;;18.33;100.00;102189.72;5024836;28;20033;-61
2023/06/23 07:21:54;;;;;;;27.73;25.33;;;;;;;18.38;100.00;102197.31;5043516;28;20021;-61
2023/06/23 07:24:20;;;;;;;27.33;25.02;;;;;;;18.42;100.00;102193.78;5043137;28;20029;-61
2023/06/23 07:26:45;;;;;;;26.40;24.10;;;;;;;18.46;100.00;102196.91;5047151;28;20389;-61
2023/06/23 07:29:10;;;;;;;26.88;24.55;;;;;;;18.53;100.00;102207.88;5034109;28;20491;-61
2023/06/23 07:31:37;;;;;;;27.88;25.52;;;;;;;18.65;100.00;102206.72;5033941;28;20036;-61
2023/06/23 07:34:03;;;;;;;24.33;22.23;;;;;;;18.67;100.00;102212.88;5041407;28;20037;-61
2023/06/23 07:36:28;;;;;;;25.35;23.00;;;;;;;18.76;100.00;102210.56;5044621;28;20048;-61
2023/06/23 07:38:53;;;;;;;23.30;21.30;;;;;;;18.73;100.00;102213.84;5047398;28;20028;-62
2023/06/23 07:41:18;;;;;;;24.15;22.15;;;;;;;18.74;100.00;102200.75;5042425;28;20064;-61
2023/06/23 07:43:44;;;;;;;23.73;21.70;;;;;;;18.78;100.00;102205.56;5038628;28;20539;-61
2023/06/23 07:46:10;;;;;;;24.75;22.58;;;;;;;18.88;100.00;102208.53;5037016;28;20026;-61
2023/06/23 07:48:35;;;;;;;24.17;21.98;;;;;;;18.97;100.00;102208.09;5033077;28;20068;-61
2023/06/23 07:51:00;;;;;;;25.70;23.63;;;;;;;19.04;100.00;102206.81;5043079;28;20036;-61
2023/06/23 07:53:26;;;;;;;25.58;23.38;;;;;;;19.04;100.00;102206.81;5037791;28;20029;-61
2023/06/23 07:55:52;;;;;;;23.83;21.83;;;;;;;19.07;100.00;102208.28;5042138;28;20128;-61
2023/06/23 07:58:18;;;;;;;24.27;22.13;;;;;;;19.23;100.00;102214.91;5027915;28;20021;-61
2023/06/23 08:00:43;;;;;;;23.92;22.00;;;;;;;19.35;100.00;102207.28;5031953;28;20044;-61
2023/06/23 08:03:08;;;;;;;23.70;21.65;;;;;;;19.47;100.00;102209.97;5039384;28;20490;-61
2023/06/23 08:05:34;;;;;;;22.65;20.75;;;;;;;19.49;100.00;102210.56;5030860;28;20049;-60
2023/06/23 08:07:59;;;;;;;23.13;21.02;;;;;;;19.56;100.00;102219.56;5038971;28;20061;-61
2023/06/23 08:10:24;;;;;;;22.77;20.77;;;;;;;19.60;100.00;102217.97;5037168;28;20047;-61
2023/06/23 08:12:49;;;;;;;22.67;20.77;;;;;;;19.64;100.00;102208.84;5050101;28;20043;-61
2023/06/23 08:15:15;;;;;;;22.27;20.38;;;;;;;19.63;100.00;102209.97;5042013;28;20029;-61
2023/06/23 08:17:40;;;;;;;21.70;19.90;;;;;;;19.76;100.00;102216.22;5030662;28;20029;-61
2023/06/23 08:20:06;;;;;;;21.65;19.85;;;;;;;19.80;100.00;102209.03;5031229;28;20040;-61
2023/06/23 08:22:31;;;;;;;24.00;22.02;;;;;;;19.89;100.00;102216.69;5040531;28;20021;-61
2023/06/23 08:24:57;;;;;;;23.42;21.42;;;;;;;20.05;100.00;102222.47;5034351;28;20078;-60
2023/06/23 08:27:22;;;;;;;22.40;20.50;;;;;;;20.06;100.00;102215.78;5049059;28;20388;-61
2023/06/23 08:29:47;;;;;;;21.38;19.60;;;;;;;20.11;100.00;102216.66;5041582;28;20025;-61
2023/06/23 08:32:13;;;;;;;23.35;21.25;;;;;;;20.21;100.00;102215.94;5040943;28;20709;-60
2023/06/23 08:34:38;;;;;;;20.42;18.83;;;;;;;20.20;100.00;102220.69;5038417;28;20049;-61
2023/06/23 08:37:04;;;;;;;18.73;17.05;;;;;;;20.28;100.00;102221.34;5035720;28;20041;-61
2023/06/23 08:39:30;;;;;;;17.27;15.88;;;;;;;20.34;100.00;102228.66;5043307;28;20052;-61
2023/06/23 08:41:58;;;;;;;19.38;17.80;;;;;;;20.44;100.00;102226.81;5042492;28;20021;-60
2023/06/23 08:44:25;;;;;;;19.33;17.63;;;;;;;20.51;100.00;102235.00;5047216;28;20074;-61
2023/06/23 08:46:56;;;;;;;19.85;18.15;;;;;;;20.58;100.00;102232.84;5047118;28;20025;-61
2023/06/23 08:49:23;;;;;;;19.13;17.63;;;;;;;20.74;100.00;102236.63;5039601;28;20025;-61
2023/06/23 08:51:50;;;;;;;15.35;13.88;;;;;;;20.71;97.29;102246.34;5040831;28;20021;-61
2023/06/23 08:54:15;;;;;;;17.40;15.90;;;;;;;20.82;98.69;102236.13;5038702;28;20484;-61
2023/06/23 08:56:43;;;;;;;17.25;15.75;;;;;;;20.95;98.38;102237.63;5036511;28;20029;-61
2023/06/23 08:59:08;;;;;;;17.00;15.55;;;;;;;21.08;97.45;102241.91;5041338;28;20075;-61
2023/06/23 09:01:33;;;;;;;14.68;13.35;;;;;;;21.20;97.70;102248.19;5030670;28;20484;-61
2023/06/23 09:04:00;;;;;;;13.93;12.68;;;;;;;21.37;96.16;102248.88;5045567;28;20070;-61
2023/06/23 09:06:26;;;;;;;14.63;13.32;;;;;;;21.46;93.29;102246.41;5042153;28;20415;-61
2023/06/23 09:08:51;;;;;;;14.50;13.20;;;;;;;21.65;98.55;102253.25;5045005;28;20031;-61
2023/06/23 09:11:17;;;;;;;14.05;12.75;;;;;;;21.74;93.41;102260.00;5038233;28;20031;-61
2023/06/23 09:13:45;;;;;;;12.93;11.73;;;;;;;21.83;90.45;102260.31;5043380;28;20456;-61
2023/06/23 09:16:11;;;;;;;12.20;11.10;;;;;;;21.89;90.45;102261.19;5032485;28;20029;-62
2023/06/23 09:18:41;;;;;;;11.98;10.88;;;;;;;21.99;91.63;102264.88;5047093;28;20043;-61
2023/06/23 09:21:07;;;;;;;11.35;10.25;;;;;;;22.02;90.29;102260.69;5044210;28;20035;-61
2023/06/23 09:23:34;;;;;;;11.35;10.35;;;;;;;22.02;88.09;102261.53;5039078;28;21686;-61
2023/06/23 09:26:03;;;;;;;11.82;10.70;;;;;;;22.12;87.48;102269.16;5036857;28;20531;-61
2023/06/23 09:28:31;;;;;;;11.13;9.93;;;;;;;22.26;84.98;102266.69;5030039;28;20048;-61
2023/06/23 09:30:59;;;;;;;10.32;9.30;;;;;;;22.41;85.99;102271.50;5036369;28;20144;-61
2023/06/23 09:33:26;;;;;;;10.68;9.65;;;;;;;22.70;83.86;102272.66;5036072;28;20031;-61
2023/06/23 09:35:53;;;;;;;11.70;10.60;;;;;;;22.73;79.50;102286.13;5044388;28;20572;-61
2023/06/23 09:38:21;;;;;;;10.30;9.20;;;;;;;23.09;81.26;102279.75;5031674;28;20033;-61
2023/06/23 09:40:47;;;;;;;9.98;8.98;;;;;;;23.79;79.80;102275.19;5034766;28;20017;-61
2023/06/23 09:43:15;;;;;;;10.32;8.93;;;;;;;24.53;74.60;102285.56;5039552;28;20515;-61
2023/06/23 09:45:40;;;;;;;9.10;8.20;;;;;;;25.91;65.98;102280.72;5033807;28;20038;-61
2023/06/23 09:48:15;;;;;;;7.65;6.85;;;;;;;27.57;63.37;102288.91;5035155;28;20506;-62
2023/06/23 09:50:41;;;;;;;7.07;6.18;;;;;;;29.38;56.12;102287.13;5044731;28;20041;-61
2023/06/23 09:53:08;;;;;;;7.43;6.15;;;;;;;30.39;53.49;102284.56;5043286;28;20555;-61
2023/06/23 09:55:34;;;;;;;8.18;5.95;;;;;;;31.35;45.44;102285.44;5045978;28;20027;-61
2023/06/23 09:58:03;;;;;;;7.72;6.53;;;;;;;32.10;46.64;102289.50;5045412;28;20029;-61
2023/06/23 10:00:29;;;;;;;6.72;5.65;;;;;;;32.56;46.11;102281.19;5043808;28;20055;-61
2023/06/23 10:02:58;;;;;;;7.40;6.03;;;;;;;31.51;45.61;102290.22;5045546;28;20027;-61
2023/06/23 10:05:23;;;;;;;8.52;6.15;;;;;;;32.15;43.05;102286.47;5045675;28;20041;-62
2023/06/23 10:08:04;;;;;;;7.25;6.22;;;;;;;31.38;43.46;102281.94;5046603;28;20021;-61
2023/06/23 10:10:30;;;;;;;6.28;5.13;;;;;;;31.23;44.66;102283.25;5037671;28;20029;-61
2023/06/23 10:12:55;;;;;;;6.70;5.53;;;;;;;29.82;46.61;102279.72;5045494;28;20033;-61
2023/06/23 10:15:22;;;;;;;6.72;5.00;;;;;;;30.19;48.47;102271.84;5033964;28;20027;-61
2023/06/23 10:17:48;;;;;;;6.43;5.25;;;;;;;31.00;44.58;102274.94;5046012;28;20037;-61
2023/06/23 10:20:14;;;;;;;6.85;5.65;;;;;;;32.05;38.58;102281.16;5030221;28;20033;-61
2023/06/23 10:22:40;;;;;;;6.88;5.30;;;;;;;32.07;38.26;102277.97;5034356;28;20184;-61
2023/06/23 10:25:09;;;;;;;8.18;5.72;;;;;;;31.90;40.31;102276.06;5038744;28;20329;-61
2023/06/23 10:27:36;;;;;;;6.53;5.00;;;;;;;31.68;41.05;102277.13;5051954;28;20090;-61
2023/06/23 10:30:02;;;;;;;6.60;5.60;;;;;;;31.69;39.83;102281.66;5048177;28;20036;-62
2023/06/23 10:32:30;;;;;;;7.85;5.78;;;;;;;31.79;39.19;102272.75;5050325;28;20285;-59
2023/06/23 10:34:58;;;;;;;6.07;5.35;;;;;;;32.01;39.95;102277.34;5047544;28;20087;-61
2023/06/23 10:37:27;;;;;;;6.53;4.93;;;;;;;31.78;42.05;102276.75;5053532;28;20047;-62
2023/06/23 10:40:00;;;;;;;6.60;5.60;;;;;;;30.76;42.58;102277.44;5054630;28;20024;-61
2023/06/23 10:42:28;;;;;;;5.35;4.70;;;;;;;30.08;43.29;102278.97;5049654;28;20396;-61
2023/06/23 10:44:54;;;;;;;7.03;5.75;;;;;;;29.51;45.58;102278.88;5049459;28;20047;-61
2023/06/23 10:47:20;;;;;;;7.15;6.20;;;;;;;28.67;51.01;102274.75;5049817;28;20107;-61
2023/06/23 10:49:46;;;;;;;6.97;5.85;;;;;;;28.26;49.23;102284.13;5049663;28;20130;-61
2023/06/23 10:52:14;;;;;;;6.63;5.88;;;;;;;27.46;53.68;102281.78;5047795;28;20029;-62
2023/06/23 10:54:39;;;;;;;6.65;5.57;;;;;;;26.92;56.59;102286.94;5045321;28;20033;-61
2023/06/23 10:57:12;;;;;;;6.72;5.30;;;;;;;26.77;55.42;102287.19;5052596;28;20439;-61
2023/06/23 10:59:43;;;;;;;6.13;4.55;;;;;;;26.58;52.69;102282.38;5054240;28;20567;-61
2023/06/23 11:02:18;;;;;;;6.35;4.53;;;;;;;26.98;57.10;102287.69;5031470;28;20555;-61
2023/06/23 11:04:56;;;;;;;5.47;4.43;;;;;;;27.48;56.60;102285.16;5040650;28;20025;-62
2023/06/23 11:07:23;;;;;;;4.80;3.25;;;;;;;27.53;54.08;102283.06;5028883;28;20028;-61
2023/06/23 11:09:54;;;;;;;4.03;3.00;;;;;;;27.37;48.92;102285.34;5027818;28;20030;-61
2023/06/23 11:12:36;;;;;;;4.93;3.38;;;;;;;27.24;53.34;102288.13;5029395;28;20032;-61